Time;durP1;ratioP1;P1;durP2;ratioP2;P2;SDS_P1;SDS_P2;PMS_P1;PMS_P2;Temp;Humidity;BMP_temperature;BMP_pressure;BME280_temperature;BME280_humidity;BME280_pressure;Samples;Min_cycle;Max_cycle;Signal;HPM_P1;HPM_P2
2023/10/21 00:02:29;;;;;;;12.73;6.70;;;25.30;99.90;;;;;;5093278;28;20207;-84
2023/10/21 00:05:00;;;;;;;11.73;6.85;;;25.40;99.90;;;;;;5080919;28;20192;-87
2023/10/21 00:07:31;;;;;;;12.82;6.65;;;25.40;99.90;;;;;;5087663;28;20200;-89
2023/10/21 00:10:02;;;;;;;11.80;6.35;;;25.10;99.90;;;;;;5083906;28;20568;-88
2023/10/21 00:12:32;;;;;;;14.35;6.68;;;25.00;99.90;;;;;;5079956;28;20298;-87
2023/10/21 00:15:04;;;;;;;14.15;8.27;;;25.20;99.90;;;;;;5086436;28;20192;-89
2023/10/21 00:17:40;;;;;;;13.05;7.30;;;25.20;99.90;;;;;;5090179;28;20231;-88
2023/10/21 00:20:12;;;;;;;13.45;7.40;;;25.20;99.90;;;;;;5090602;28;20703;-89
2023/10/21 00:22:46;;;;;;;12.80;7.22;;;25.40;99.90;;;;;;5087751;28;20200;-88
2023/10/21 00:25:17;;;;;;;13.95;7.88;;;25.70;99.90;;;;;;5084785;28;20227;-89
2023/10/21 00:27:47;;;;;;;16.48;8.32;;;25.80;99.90;;;;;;5085294;28;20192;-89
2023/10/21 00:30:18;;;;;;;15.75;8.57;;;25.70;99.90;;;;;;5093778;28;20208;-89
2023/10/21 00:32:51;;;;;;;12.95;8.13;;;25.70;99.90;;;;;;5094052;28;20747;-90
2023/10/21 00:35:22;;;;;;;15.55;8.68;;;25.70;99.90;;;;;;5094161;28;20555;-89
2023/10/21 00:37:53;;;;;;;15.00;8.60;;;25.70;99.90;;;;;;5093211;28;20571;-88
2023/10/21 00:40:24;;;;;;;15.23;9.23;;;25.90;99.90;;;;;;5096887;28;20195;-86
2023/10/21 00:42:56;;;;;;;17.05;9.60;;;26.10;99.90;;;;;;5107409;28;20223;-86
2023/10/21 00:45:27;;;;;;;14.85;9.30;;;26.00;99.90;;;;;;5114847;28;20639;-86
2023/10/21 00:48:00;;;;;;;18.77;10.13;;;25.70;99.90;;;;;;5101292;28;20196;-88
2023/10/21 00:50:31;;;;;;;13.27;9.32;;;25.70;99.90;;;;;;5088943;28;20227;-90
2023/10/21 00:53:03;;;;;;;13.88;9.23;;;25.70;99.90;;;;;;5084474;28;20291;-85
2023/10/21 00:55:35;;;;;;;15.30;9.60;;;25.80;99.90;;;;;;5075542;28;20207;-86
2023/10/21 00:58:06;;;;;;;16.55;9.63;;;25.60;99.90;;;;;;5093104;28;20200;-86
2023/10/21 01:00:37;;;;;;;15.60;10.05;;;25.70;99.90;;;;;;5089893;28;20224;-84
2023/10/21 01:03:10;;;;;;;14.18;9.52;;;25.90;99.90;;;;;;5078057;28;20207;-84
2023/10/21 01:05:41;;;;;;;14.88;9.32;;;26.00;99.90;;;;;;5090706;28;20562;-85
2023/10/21 01:08:11;;;;;;;13.25;9.25;;;25.90;99.90;;;;;;5088158;28;20203;-89
2023/10/21 01:10:43;;;;;;;14.75;9.32;;;26.00;99.90;;;;;;5082071;28;20277;-83
2023/10/21 01:13:14;;;;;;;13.10;9.27;;;26.10;99.90;;;;;;5092818;28;20658;-87
2023/10/21 01:15:45;;;;;;;17.05;8.50;;;26.10;99.90;;;;;;5079329;28;20719;-89
2023/10/21 01:18:18;;;;;;;14.80;9.02;;;26.20;99.90;;;;;;5073008;28;20559;-87
2023/10/21 01:20:54;;;;;;;15.88;8.65;;;26.40;99.90;;;;;;5086944;28;20192;-85
2023/10/21 01:23:27;;;;;;;14.25;9.23;;;26.60;99.90;;;;;;5092377;28;20206;-82
2023/10/21 01:25:57;;;;;;;12.70;8.63;;;26.90;99.90;;;;;;5085780;28;20663;-86
2023/10/21 01:28:28;;;;;;;14.75;9.15;;;26.90;99.90;;;;;;5080688;28;20298;-86
2023/10/21 01:30:59;;;;;;;13.35;8.30;;;26.90;99.90;;;;;;5080439;28;20739;-85
2023/10/21 01:33:30;;;;;;;13.38;8.25;;;26.80;99.90;;;;;;5084933;28;20296;-85
2023/10/21 01:36:01;;;;;;;12.80;8.40;;;26.40;99.90;;;;;;5085518;28;20303;-87
2023/10/21 01:38:34;;;;;;;12.80;8.40;;;26.30;99.90;;;;;;5085533;28;20192;-86
2023/10/21 01:41:05;;;;;;;15.23;9.40;;;26.10;99.90;;;;;;5088726;28;20204;-87
2023/10/21 01:43:35;;;;;;;13.80;8.93;;;26.20;99.90;;;;;;5093162;28;20302;-85
2023/10/21 01:46:07;;;;;;;13.18;9.02;;;26.30;99.90;;;;;;5093236;28;20727;-83
2023/10/21 01:48:38;;;;;;;14.35;9.00;;;26.40;99.90;;;;;;5093110;28;20196;-87
2023/10/21 01:51:09;;;;;;;12.77;9.45;;;26.50;99.90;;;;;;5092786;28;20243;-84
2023/10/21 01:53:41;;;;;;;13.68;9.52;;;26.40;99.90;;;;;;5093448;28;20276;-81
2023/10/21 01:56:12;;;;;;;14.00;9.15;;;26.40;99.90;;;;;;5093164;28;20201;-90
2023/10/21 01:58:43;;;;;;;15.45;10.00;;;26.40;99.90;;;;;;5099408;28;20188;-84
2023/10/21 02:01:14;;;;;;;17.40;9.30;;;26.50;99.90;;;;;;5107139;28;20292;-86
2023/10/21 02:03:45;;;;;;;12.93;9.05;;;26.50;99.90;;;;;;5108084;28;20271;-87
2023/10/21 02:06:15;;;;;;;15.77;9.52;;;26.70;99.90;;;;;;5106823;28;20193;-87
2023/10/21 02:08:48;;;;;;;14.73;8.98;;;26.60;99.90;;;;;;5096715;28;20664;-80
2023/10/21 02:11:24;;;;;;;14.07;9.65;;;26.70;99.90;;;;;;5096354;28;20211;-82
2023/10/21 02:13:54;;;;;;;15.50;9.85;;;26.70;99.90;;;;;;5096581;28;20207;-83
2023/10/21 02:16:25;;;;;;;12.88;9.95;;;26.30;99.90;;;;;;5095226;28;20227;-82
2023/10/21 02:18:56;;;;;;;16.85;10.07;;;25.90;99.90;;;;;;5093697;28;20648;-82
2023/10/21 02:21:27;;;;;;;15.25;9.30;;;25.70;99.90;;;;;;5095287;28;20218;-83
2023/10/21 02:24:00;;;;;;;15.68;9.80;;;25.70;99.90;;;;;;5096258;28;20196;-84
2023/10/21 02:26:32;;;;;;;15.63;9.80;;;25.70;99.90;;;;;;5096932;28;20271;-82
2023/10/21 02:29:03;;;;;;;17.00;9.57;;;25.90;99.90;;;;;;5096844;28;20280;-84
2023/10/21 02:31:34;;;;;;;15.13;9.32;;;25.70;99.90;;;;;;5096755;28;20243;-84
2023/10/21 02:34:05;;;;;;;15.23;9.48;;;25.40;99.90;;;;;;5096508;28;20188;-83
2023/10/21 02:36:36;;;;;;;13.45;8.48;;;25.40;99.90;;;;;;5094797;28;20196;-85
2023/10/21 02:39:09;;;;;;;13.65;8.43;;;25.60;99.90;;;;;;5087969;28;20243;-83
2023/10/21 02:41:41;;;;;;;11.93;8.70;;;25.40;99.90;;;;;;5091089;28;20200;-81
2023/10/21 02:44:12;;;;;;;13.45;8.18;;;25.40;99.90;;;;;;5091704;28;20275;-80
2023/10/21 02:46:43;;;;;;;14.23;9.13;;;25.50;99.90;;;;;;5076115;28;20196;-81
2023/10/21 02:49:14;;;;;;;12.52;7.95;;;25.70;99.90;;;;;;5076481;28;20247;-82
2023/10/21 02:51:45;;;;;;;14.30;8.18;;;25.90;99.90;;;;;;5075473;28;20331;-83
2023/10/21 02:54:18;;;;;;;12.70;7.78;;;25.90;99.90;;;;;;5076088;28;20197;-83
2023/10/21 02:56:48;;;;;;;11.75;7.82;;;25.90;99.90;;;;;;5080543;28;20204;-82
2023/10/21 02:59:20;;;;;;;10.98;7.30;;;25.70;99.90;;;;;;5079792;28;20220;-83
2023/10/21 03:01:51;;;;;;;13.48;6.97;;;25.50;99.90;;;;;;5080718;28;20196;-82
2023/10/21 03:04:22;;;;;;;11.55;7.00;;;25.50;99.90;;;;;;5088878;28;20185;-83
2023/10/21 03:06:56;;;;;;;11.52;6.50;;;25.60;99.90;;;;;;5075590;28;20185;-82
2023/10/21 03:09:29;;;;;;;13.60;6.60;;;25.70;99.90;;;;;;5075916;28;20188;-85
2023/10/21 03:12:00;;;;;;;11.95;5.80;;;25.70;99.90;;;;;;5079363;28;20307;-84
2023/10/21 03:14:31;;;;;;;9.88;5.13;;;25.90;99.90;;;;;;5083636;28;20193;-86
2023/10/21 03:17:03;;;;;;;9.20;5.65;;;26.00;99.90;;;;;;5078994;28;20184;-85
2023/10/21 03:19:34;;;;;;;11.85;5.75;;;25.70;99.90;;;;;;5095403;28;20196;-85
2023/10/21 03:22:05;;;;;;;11.93;5.40;;;25.50;99.90;;;;;;5095611;28;20200;-84
2023/10/21 03:24:38;;;;;;;8.95;4.55;;;25.20;99.90;;;;;;5088259;28;20196;-87
2023/10/21 03:27:09;;;;;;;8.05;4.60;;;25.10;99.90;;;;;;5081444;28;20672;-87
2023/10/21 03:29:40;;;;;;;10.32;4.40;;;25.00;99.90;;;;;;5075389;28;20190;-82
2023/10/21 03:32:11;;;;;;;7.55;4.13;;;24.90;99.90;;;;;;5087090;28;20755;-87
2023/10/21 03:34:42;;;;;;;10.77;4.00;;;25.00;99.90;;;;;;5104893;28;20200;-85
2023/10/21 03:37:13;;;;;;;9.52;4.05;;;25.10;99.90;;;;;;5090637;28;20287;-88
2023/10/21 03:39:46;;;;;;;9.15;3.78;;;25.00;99.90;;;;;;5086906;28;20196;-85
2023/10/21 03:42:17;;;;;;;6.43;3.50;;;25.10;99.90;;;;;;5074658;28;20197;-87
2023/10/21 03:44:48;;;;;;;10.10;4.13;;;25.10;99.90;;;;;;5074722;28;20548;-85
2023/10/21 03:47:19;;;;;;;9.75;4.35;;;25.00;99.90;;;;;;5074744;28;20188;-83
2023/10/21 03:49:49;;;;;;;10.88;4.45;;;24.70;99.90;;;;;;5080065;28;20292;-87
2023/10/21 03:52:20;;;;;;;12.75;4.47;;;24.60;99.90;;;;;;5084658;28;20231;-83
2023/10/21 03:54:56;;;;;;;9.75;4.60;;;24.60;99.90;;;;;;5093186;28;20192;-87
2023/10/21 03:57:27;;;;;;;13.90;4.95;;;24.40;99.90;;;;;;5074366;28;20275;-85
2023/10/21 03:59:58;;;;;;;9.45;4.70;;;24.30;99.90;;;;;;5093045;28;20275;-84
2023/10/21 04:02:29;;;;;;;11.20;5.10;;;24.40;99.90;;;;;;5093347;28;20675;-82
2023/10/21 04:05:00;;;;;;;11.70;5.05;;;24.50;99.90;;;;;;5091313;28;20572;-87
2023/10/21 04:07:30;;;;;;;12.20;5.47;;;24.60;99.90;;;;;;5089063;28;20227;-86
2023/10/21 04:10:03;;;;;;;11.93;5.35;;;24.70;99.90;;;;;;5093702;28;20189;-87
2023/10/21 04:12:34;;;;;;;10.45;5.20;;;24.80;99.90;;;;;;5094202;28;20208;-87
2023/10/21 04:15:05;;;;;;;11.88;5.80;;;25.00;99.90;;;;;;5093763;28;20247;-83
2023/10/21 04:17:35;;;;;;;11.02;5.32;;;25.10;99.90;;;;;;5089284;28;20279;-85
2023/10/21 04:20:07;;;;;;;11.48;5.28;;;25.10;99.90;;;;;;5094169;28;20982;-86
2023/10/21 04:22:38;;;;;;;12.27;5.95;;;25.20;99.90;;;;;;5094461;28;20233;-90
2023/10/21 04:25:11;;;;;;;12.02;5.97;;;25.10;99.90;;;;;;5094591;28;20612;-89
2023/10/21 04:27:42;;;;;;;10.25;5.28;;;25.10;99.90;;;;;;5089116;28;20241;-90
2023/10/21 04:30:14;;;;;;;14.15;5.93;;;25.00;99.90;;;;;;5091246;28;20294;-86
2023/10/21 04:32:47;;;;;;;10.02;5.68;;;25.00;99.90;;;;;;5094100;28;20227;-88
2023/10/21 04:35:18;;;;;;;11.70;5.65;;;24.90;99.90;;;;;;5099719;28;20336;-90
2023/10/21 04:37:49;;;;;;;13.85;5.82;;;24.90;99.90;;;;;;5100764;28;20181;-87
2023/10/21 04:40:22;;;;;;;10.60;5.47;;;24.90;99.90;;;;;;5082116;28;20205;-82
2023/10/21 04:42:55;;;;;;;12.95;5.85;;;24.80;99.90;;;;;;5094096;28;20636;-86
2023/10/21 04:45:26;;;;;;;12.30;6.15;;;24.90;99.90;;;;;;5090222;28;20184;-88
2023/10/21 04:47:57;;;;;;;13.32;5.88;;;24.60;99.90;;;;;;5094047;28;20280;-88
2023/10/21 04:50:28;;;;;;;13.85;6.03;;;24.40;99.90;;;;;;5093259;28;20232;-88
2023/10/21 04:52:59;;;;;;;15.05;6.20;;;24.40;99.90;;;;;;5093824;28;20208;-88
2023/10/21 04:55:32;;;;;;;11.30;5.65;;;24.30;99.90;;;;;;5093952;28;20189;-87
2023/10/21 04:58:08;;;;;;;15.73;5.70;;;24.10;99.90;;;;;;5089685;28;20249;-89
2023/10/21 05:00:39;;;;;;;14.27;5.78;;;24.10;99.90;;;;;;5086031;28;20739;-82
2023/10/21 05:03:10;;;;;;;15.60;6.05;;;24.20;99.90;;;;;;5086227;28;20204;-87
2023/10/21 05:05:41;;;;;;;12.68;5.75;;;24.20;99.90;;;;;;5086067;28;20241;-85
2023/10/21 05:08:12;;;;;;;13.57;5.43;;;24.30;99.90;;;;;;5081708;28;20211;-89
2023/10/21 05:10:46;;;;;;;15.57;5.55;;;24.30;99.90;;;;;;5087857;28;20279;-87
2023/10/21 05:13:17;;;;;;;12.73;5.30;;;24.40;99.90;;;;;;5099470;28;20243;-88
2023/10/21 05:15:48;;;;;;;12.82;4.88;;;24.30;99.90;;;;;;5081932;28;20196;-90
2023/10/21 05:18:19;;;;;;;13.10;4.70;;;24.50;99.90;;;;;;5094806;28;20196;-88
2023/10/21 05:20:50;;;;;;;16.40;4.60;;;24.50;99.90;;;;;;5091928;28;20228;-86
2023/10/21 05:23:21;;;;;;;14.52;4.85;;;24.10;99.90;;;;;;5093210;28;20242;-87
2023/10/21 05:25:54;;;;;;;15.48;4.93;;;24.10;99.90;;;;;;5089785;28;20201;-89
2023/10/21 05:28:24;;;;;;;10.60;4.75;;;24.00;99.90;;;;;;5092080;28;20683;-88
2023/10/21 05:30:55;;;;;;;14.18;4.80;;;24.00;99.90;;;;;;5081694;28;20246;-88
2023/10/21 05:33:26;;;;;;;13.30;4.50;;;24.00;99.90;;;;;;5082096;28;20586;-84
2023/10/21 05:36:00;;;;;;;11.82;4.43;;;23.90;99.90;;;;;;5094462;28;20262;-87
2023/10/21 05:38:31;;;;;;;12.95;4.15;;;24.00;99.90;;;;;;5094337;28;20295;-87
2023/10/21 05:41:05;;;;;;;15.25;4.88;;;24.10;99.90;;;;;;5079720;28;20560;-84
2023/10/21 05:43:36;;;;;;;12.85;5.03;;;24.00;99.90;;;;;;5097810;28;20192;-87
2023/10/21 05:46:07;;;;;;;13.80;4.40;;;23.90;99.90;;;;;;5093686;28;20294;-81
2023/10/21 05:48:38;;;;;;;11.88;4.35;;;23.90;99.90;;;;;;5083276;28;20193;-86
2023/10/21 05:51:09;;;;;;;11.90;4.43;;;23.90;99.90;;;;;;5081840;28;20590;-88
2023/10/21 05:53:40;;;;;;;12.40;4.60;;;23.70;99.90;;;;;;5086774;28;20222;-86
2023/10/21 05:56:15;;;;;;;15.40;4.68;;;23.60;99.90;;;;;;5087161;28;20246;-82
2023/10/21 05:58:46;;;;;;;12.10;4.82;;;23.90;99.90;;;;;;5080023;28;20207;-85
2023/10/21 06:01:17;;;;;;;18.90;5.03;;;23.60;99.90;;;;;;5096543;28;20611;-86
2023/10/21 06:03:48;;;;;;;10.80;4.40;;;23.50;99.90;;;;;;5095087;28;20215;-85
2023/10/21 06:06:19;;;;;;;14.02;5.05;;;23.60;99.90;;;;;;5084735;28;20746;-84
2023/10/21 06:08:49;;;;;;;10.45;4.35;;;23.60;99.90;;;;;;5079310;28;20196;-86
2023/10/21 06:11:22;;;;;;;12.45;4.70;;;23.50;99.90;;;;;;5077478;28;20312;-86
2023/10/21 06:13:53;;;;;;;11.20;4.90;;;23.40;99.90;;;;;;5094587;28;20659;-86
2023/10/21 06:16:25;;;;;;;11.27;4.68;;;23.40;99.90;;;;;;5096950;28;20283;-86
2023/10/21 06:18:56;;;;;;;14.32;5.10;;;23.40;99.90;;;;;;5087192;28;20201;-84
2023/10/21 06:21:26;;;;;;;12.30;5.50;;;23.40;99.90;;;;;;5082917;28;20192;-85
2023/10/21 06:23:57;;;;;;;13.55;5.18;;;23.30;99.90;;;;;;5092521;28;20246;-84
2023/10/21 06:26:31;;;;;;;18.63;5.88;;;23.30;99.90;;;;;;5096788;28;20236;-83
2023/10/21 06:29:01;;;;;;;13.95;5.88;;;23.30;99.90;;;;;;5089142;28;20546;-84
2023/10/21 06:31:32;;;;;;;14.20;5.72;;;23.20;99.90;;;;;;5081822;28;20216;-84
2023/10/21 06:34:06;;;;;;;20.15;6.38;;;23.20;99.90;;;;;;5095870;28;20303;-83
2023/10/21 06:36:37;;;;;;;22.90;12.32;;;23.20;99.90;;;;;;5084106;28;20272;-80
2023/10/21 06:39:08;;;;;;;13.45;6.10;;;23.20;99.90;;;;;;5086945;28;20254;-88
2023/10/21 06:41:41;;;;;;;17.73;6.85;;;23.30;99.90;;;;;;5089742;28;20306;-82
2023/10/21 06:44:15;;;;;;;11.25;6.07;;;23.30;99.90;;;;;;5075456;28;20241;-85
2023/10/21 06:46:46;;;;;;;18.33;7.32;;;23.20;99.90;;;;;;5076000;28;20254;-84
2023/10/21 06:49:17;;;;;;;17.77;7.00;;;23.00;99.90;;;;;;5074827;28;20189;-85
2023/10/21 06:51:52;;;;;;;18.35;7.43;;;23.00;99.90;;;;;;5081636;28;20232;-84
2023/10/21 06:54:22;;;;;;;18.42;7.00;;;22.90;99.90;;;;;;5088101;28;20224;-90
2023/10/21 06:56:55;;;;;;;15.65;7.00;;;22.90;99.90;;;;;;5092934;28;20279;-88
2023/10/21 06:59:26;;;;;;;22.45;7.50;;;22.90;99.90;;;;;;5089970;28;20582;-89
2023/10/21 07:01:57;;;;;;;16.65;7.22;;;22.70;99.90;;;;;;5080952;28;20200;-86
2023/10/21 07:04:28;;;;;;;17.13;7.32;;;22.70;99.90;;;;;;5088298;28;20188;-77
2023/10/21 07:06:59;;;;;;;16.73;6.57;;;22.70;99.90;;;;;;5088293;28;20206;-90
2023/10/21 07:09:30;;;;;;;16.02;6.18;;;22.70;99.90;;;;;;5092349;28;20220;-77
2023/10/21 07:12:03;;;;;;;18.77;6.60;;;22.60;99.90;;;;;;5083424;28;20675;-81
2023/10/21 07:14:35;;;;;;;13.98;5.78;;;22.60;99.90;;;;;;5078789;28;20220;-86
2023/10/21 07:17:06;;;;;;;15.98;5.85;;;22.60;99.90;;;;;;5085915;28;20288;-89
2023/10/21 07:19:36;;;;;;;15.60;5.68;;;22.60;99.90;;;;;;5090664;28;20282;-79
2023/10/21 07:22:08;;;;;;;18.85;6.18;;;22.60;99.90;;;;;;5079246;28;20275;-86
2023/10/21 07:24:39;;;;;;;18.85;6.30;;;22.60;99.90;;;;;;5092665;28;20663;-88
2023/10/21 07:27:12;;;;;;;17.65;5.70;;;22.60;99.90;;;;;;5080916;28;20229;-87
2023/10/21 07:29:43;;;;;;;13.68;5.13;;;22.50;99.90;;;;;;5079900;28;20279;-87
2023/10/21 07:32:14;;;;;;;13.90;5.00;;;22.50;99.90;;;;;;5090668;28;20228;-76
2023/10/21 07:34:45;;;;;;;14.63;4.70;;;22.40;99.90;;;;;;5087312;28;20300;-82
2023/10/21 07:37:16;;;;;;;23.25;5.15;;;22.30;99.90;;;;;;5095071;28;20652;-89
2023/10/21 07:39:47;;;;;;;13.07;4.30;;;22.30;99.90;;;;;;5093706;28;20200;-81
2023/10/21 07:42:19;;;;;;;12.05;3.67;;;22.20;99.90;;;;;;5091953;28;20279;-82
2023/10/21 07:44:50;;;;;;;14.07;3.42;;;22.20;99.90;;;;;;5089446;28;20270;-83
2023/10/21 07:47:21;;;;;;;15.82;3.50;;;22.20;99.90;;;;;;5092661;28;20193;-88
2023/10/21 07:49:52;;;;;;;11.68;3.25;;;22.10;99.90;;;;;;5088568;28;20563;-86
2023/10/21 07:52:24;;;;;;;15.02;3.03;;;22.00;99.90;;;;;;5086963;28;20193;-82
2023/10/21 07:54:56;;;;;;;16.67;3.45;;;22.00;99.90;;;;;;5083269;28;20223;-83
2023/10/21 07:57:30;;;;;;;14.95;3.78;;;22.00;99.90;;;;;;5077322;28;20288;-85
2023/10/21 08:00:02;;;;;;;16.05;3.28;;;21.90;99.90;;;;;;5076823;28;20284;-84
2023/10/21 08:02:34;;;;;;;15.23;3.20;;;21.50;99.90;;;;;;5089062;28;20220;-80
2023/10/21 08:05:07;;;;;;;16.80;3.22;;;21.80;99.90;;;;;;5085973;28;20616;-80
2023/10/21 08:07:38;;;;;;;17.95;3.25;;;21.80;99.90;;;;;;5086076;28;20246;-85
2023/10/21 08:10:09;;;;;;;20.42;3.67;;;21.80;99.90;;;;;;5083031;28;20623;-85
2023/10/21 08:12:42;;;;;;;15.25;2.97;;;21.70;99.90;;;;;;5084195;28;20192;-84
2023/10/21 08:15:13;;;;;;;19.60;3.30;;;21.60;99.90;;;;;;5088226;28;20228;-88
2023/10/21 08:17:45;;;;;;;17.42;3.60;;;21.60;99.90;;;;;;5081525;28;20192;-84
2023/10/21 08:20:17;;;;;;;23.60;3.60;;;21.60;99.90;;;;;;5081055;28;20200;-86
2023/10/21 08:22:48;;;;;;;17.25;3.28;;;21.50;99.90;;;;;;5082107;28;20243;-83
2023/10/21 08:25:19;;;;;;;17.77;3.10;;;21.50;99.90;;;;;;5089483;28;20232;-84
2023/10/21 08:27:51;;;;;;;20.70;3.20;;;21.50;99.90;;;;;;5080619;28;20189;-81
2023/10/21 08:30:22;;;;;;;14.80;3.05;;;21.50;99.90;;;;;;5081225;28;20220;-85
2023/10/21 08:32:55;;;;;;;15.18;3.65;;;21.40;99.90;;;;;;5081386;28;20223;-87
2023/10/21 08:35:26;;;;;;;23.02;3.65;;;21.40;99.90;;;;;;5088995;28;20240;-86
2023/10/21 08:37:57;;;;;;;16.45;2.97;;;21.40;99.90;;;;;;5077468;28;20192;-86
2023/10/21 08:40:28;;;;;;;17.52;3.83;;;21.40;99.90;;;;;;5084299;28;20192;-86
2023/10/21 08:43:07;;;;;;;21.23;3.22;;;21.30;99.90;;;;;;5093142;28;20210;-86
2023/10/21 08:45:39;;;;;;;19.50;3.17;;;21.40;99.90;;;;;;5084961;28;20242;-83
2023/10/21 08:48:12;;;;;;;15.43;3.20;;;21.30;99.90;;;;;;5078714;28;20671;-84
2023/10/21 08:50:48;;;;;;;17.35;3.30;;;21.30;99.90;;;;;;5082056;28;20273;-85
2023/10/21 08:53:19;;;;;;;17.20;3.15;;;21.30;99.90;;;;;;5083014;28;20207;-84
2023/10/21 08:55:51;;;;;;;22.90;3.58;;;21.20;99.90;;;;;;5082919;28;20196;-87
2023/10/21 08:58:28;;;;;;;17.35;3.53;;;21.30;99.90;;;;;;5078036;28;20203;-88
2023/10/21 09:00:59;;;;;;;16.20;3.13;;;21.20;99.90;;;;;;5075024;28;20317;-83
2023/10/21 09:03:30;;;;;;;15.90;3.42;;;21.20;99.90;;;;;;5085599;28;20196;-84
2023/10/21 09:06:10;;;;;;;20.15;4.45;;;21.20;99.90;;;;;;5078865;28;20207;-86
2023/10/21 09:08:44;;;;;;;18.50;3.50;;;21.20;99.90;;;;;;5076508;28;20196;-87
2023/10/21 09:11:15;;;;;;;14.60;3.22;;;21.20;99.90;;;;;;5086892;28;20648;-85
2023/10/21 09:13:49;;;;;;;19.55;3.58;;;21.10;99.90;;;;;;5075195;28;20215;-84
2023/10/21 09:16:25;;;;;;;17.25;3.30;;;21.10;99.90;;;;;;5087342;28;20196;-86
2023/10/21 09:19:03;;;;;;;16.65;3.55;;;21.10;99.90;;;;;;5085964;28;20597;-85
2023/10/21 09:21:40;;;;;;;19.20;3.63;;;21.10;99.90;;;;;;5084036;28;20648;-80
2023/10/21 09:24:12;;;;;;;20.77;3.50;;;21.10;99.90;;;;;;5085978;28;20345;-89
2023/10/21 09:26:45;;;;;;;22.95;3.60;;;21.10;99.90;;;;;;5080412;28;20288;-84
2023/10/21 09:29:20;;;;;;;24.27;4.00;;;21.00;99.90;;;;;;5083463;28;20640;-85
2023/10/21 09:31:53;;;;;;;17.85;3.88;;;21.00;99.90;;;;;;5088653;28;20265;-79
2023/10/21 09:34:29;;;;;;;14.93;3.40;;;21.00;99.90;;;;;;5083632;28;20212;-82
2023/10/21 09:37:00;;;;;;;16.98;3.58;;;21.00;99.90;;;;;;5079479;28;20228;-86
2023/10/21 09:39:33;;;;;;;19.85;3.67;;;21.00;99.90;;;;;;5074696;28;20670;-80
2023/10/21 09:42:04;;;;;;;15.35;3.92;;;21.00;99.90;;;;;;5080867;28;20197;-84
2023/10/21 09:44:38;;;;;;;18.88;3.78;;;20.90;99.90;;;;;;5080282;28;20192;-82
2023/10/21 09:47:10;;;;;;;14.50;3.33;;;20.90;99.90;;;;;;5080396;28;20656;-86
2023/10/21 09:49:41;;;;;;;19.90;3.53;;;20.90;99.90;;;;;;5085202;28;20201;-85
2023/10/21 09:52:16;;;;;;;23.50;3.55;;;20.90;99.90;;;;;;5080502;28;20192;-85
2023/10/21 09:54:50;;;;;;;19.42;3.47;;;20.90;99.90;;;;;;5078947;28;20228;-86
2023/10/21 09:57:21;;;;;;;19.33;3.83;;;20.90;99.90;;;;;;5074730;28;20291;-86
2023/10/21 09:59:56;;;;;;;22.35;3.50;;;20.80;99.90;;;;;;5077268;28;20197;-89
2023/10/21 10:02:27;;;;;;;21.70;3.60;;;20.80;99.90;;;;;;5077868;28;20196;-88
2023/10/21 10:04:58;;;;;;;26.75;4.35;;;20.90;99.90;;;;;;5080094;28;20629;-85
2023/10/21 10:07:30;;;;;;;18.90;3.25;;;20.80;99.90;;;;;;5081487;28;20283;-86
2023/10/21 10:10:02;;;;;;;20.58;4.07;;;20.80;99.90;;;;;;5092373;28;20675;-89
2023/10/21 10:12:38;;;;;;;24.77;3.75;;;20.80;99.90;;;;;;5091628;28;20192;-84
2023/10/21 10:15:35;;;;;;;23.70;3.88;;;20.70;99.90;;;;;;5088038;28;20219;-80
2023/10/21 10:18:07;;;;;;;21.15;3.65;;;20.80;99.90;;;;;;5075411;28;20615;-86
2023/10/21 10:20:46;;;;;;;16.58;3.78;;;20.80;99.90;;;;;;5078472;28;20200;-84
2023/10/21 10:23:17;;;;;;;14.32;3.40;;;20.70;99.90;;;;;;5080231;28;20193;-88
2023/10/21 10:25:49;;;;;;;21.13;3.72;;;20.70;99.90;;;;;;5082464;28;20215;-86
2023/10/21 10:28:23;;;;;;;21.10;3.72;;;20.70;99.90;;;;;;5079856;28;20200;-88
2023/10/21 10:30:56;;;;;;;21.27;3.85;;;20.70;99.90;;;;;;5085649;28;20216;-85
2023/10/21 10:33:29;;;;;;;15.27;3.83;;;20.70;99.90;;;;;;5092042;28;20278;-89
2023/10/21 10:36:00;;;;;;;23.52;4.18;;;20.70;99.90;;;;;;5086458;28;20196;-88
2023/10/21 10:38:34;;;;;;;17.98;3.90;;;20.70;99.90;;;;;;5084397;28;20193;-84
2023/10/21 10:41:09;;;;;;;21.50;3.92;;;20.70;99.90;;;;;;5085456;28;20203;-88
2023/10/21 10:43:43;;;;;;;18.77;3.38;;;20.60;99.90;;;;;;5083315;28;20200;-86
2023/10/21 10:46:20;;;;;;;25.45;4.07;;;20.60;99.90;;;;;;5085256;28;20204;-83
2023/10/21 10:48:51;;;;;;;21.73;3.78;;;20.60;99.90;;;;;;5092964;28;20714;-86
2023/10/21 10:51:27;;;;;;;25.23;3.78;;;20.60;99.90;;;;;;5083170;28;20236;-84
2023/10/21 10:54:01;;;;;;;18.60;3.70;;;20.60;99.90;;;;;;5085772;28;20265;-82
2023/10/21 10:56:43;;;;;;;17.73;3.50;;;20.60;99.90;;;;;;5082560;28;20196;-80
2023/10/21 10:59:17;;;;;;;16.75;3.65;;;20.60;99.90;;;;;;5082608;28;20215;-80
2023/10/21 11:02:01;;;;;;;22.20;4.00;;;20.50;99.90;;;;;;5085073;28;20672;-81
2023/10/21 11:04:33;;;;;;;15.48;3.38;;;20.50;99.90;;;;;;5088525;28;20219;-79
2023/10/21 11:07:04;;;;;;;19.42;3.97;;;20.50;99.90;;;;;;5088434;28;20231;-85
2023/10/21 11:09:35;;;;;;;17.77;3.50;;;20.50;99.90;;;;;;5086160;28;20283;-81
2023/10/21 11:12:09;;;;;;;21.90;4.07;;;20.50;99.90;;;;;;5084518;28;20232;-79
2023/10/21 11:14:40;;;;;;;22.95;4.05;;;20.40;99.90;;;;;;5087695;28;20311;-83
2023/10/21 11:17:13;;;;;;;14.20;3.50;;;20.40;99.90;;;;;;5087597;28;20196;-78
2023/10/21 11:19:44;;;;;;;23.48;3.75;;;20.40;99.90;;;;;;5083506;28;20613;-83
2023/10/21 11:22:25;;;;;;;21.83;3.70;;;20.40;99.90;;;;;;5092907;28;20550;-78
2023/10/21 11:24:56;;;;;;;18.27;3.67;;;20.30;99.90;;;;;;5084827;28;20656;-79
2023/10/21 11:27:27;;;;;;;26.17;4.35;;;20.40;99.90;;;;;;5084624;28;20192;-76
2023/10/21 11:29:58;;;;;;;22.92;3.88;;;20.30;99.90;;;;;;5091591;28;20264;-78
2023/10/21 11:32:33;;;;;;;17.70;3.80;;;20.30;99.90;;;;;;5086239;28;20209;-75
2023/10/21 11:35:06;;;;;;;17.25;3.90;;;20.30;99.90;;;;;;5080489;28;20222;-86
2023/10/21 11:37:36;;;;;;;21.27;3.90;;;20.30;99.90;;;;;;5087198;28;20279;-85
2023/10/21 11:40:09;;;;;;;23.90;4.20;;;20.20;99.90;;;;;;5087364;28;20279;-84
2023/10/21 11:42:43;;;;;;;23.40;4.03;;;20.30;99.90;;;;;;5080954;28;20197;-75
2023/10/21 11:45:16;;;;;;;24.67;4.07;;;20.20;99.90;;;;;;5078906;28;20189;-76
2023/10/21 11:47:49;;;;;;;26.02;4.13;;;20.20;99.90;;;;;;5084344;28;20386;-77
2023/10/21 11:50:25;;;;;;;21.63;4.13;;;20.20;99.90;;;;;;5086329;28;20281;-75
2023/10/21 11:52:56;;;;;;;24.65;4.40;;;20.20;99.90;;;;;;5084409;28;20534;-79
2023/10/21 11:56:01;;;;;;;23.95;4.18;;;20.20;99.90;;;;;;5085818;28;20282;-76
2023/10/21 12:07:53;;;;;;;17.80;4.05;;;20.10;99.90;;;;;;5076973;28;20317;-88
2023/10/21 12:13:31;;;;;;;20.52;4.57;;;20.10;99.90;;;;;;5052986;28;20215;-89
2023/10/21 12:22:12;;;;;;;16.77;4.15;;;20.00;99.90;;;;;;5068388;28;20203;-85
2023/10/21 12:25:16;;;;;;;16.40;3.58;;;20.00;99.90;;;;;;5093241;28;20200;-87
2023/10/21 12:36:31;;;;;;;27.85;4.82;;;19.90;99.90;;;;;;5080675;28;20224;-86
2023/10/21 12:39:21;;;;;;;15.93;3.83;;;19.90;99.90;;;;;;5073914;28;20678;-81
2023/10/21 12:41:57;;;;;;;25.65;4.80;;;19.90;99.90;;;;;;5092488;28;20284;-86
2023/10/21 12:44:27;;;;;;;18.77;4.10;;;19.90;99.90;;;;;;5090888;28;20231;-84
2023/10/21 12:47:00;;;;;;;18.23;3.72;;;19.90;99.90;;;;;;5086546;28;20207;-79
2023/10/21 12:49:31;;;;;;;15.68;3.80;;;19.90;99.90;;;;;;5091289;28;20204;-85
2023/10/21 12:52:05;;;;;;;22.73;4.43;;;19.80;99.90;;;;;;5091716;28;20305;-84
2023/10/21 12:54:38;;;;;;;21.77;3.90;;;19.80;99.90;;;;;;5089676;28;20247;-83
2023/10/21 12:57:09;;;;;;;19.15;4.53;;;19.80;99.90;;;;;;5093950;28;20204;-86
2023/10/21 12:59:39;;;;;;;21.05;4.53;;;19.80;99.90;;;;;;5092475;28;20211;-87
2023/10/21 13:02:11;;;;;;;25.95;4.93;;;19.80;99.90;;;;;;5075934;28;20272;-87
2023/10/21 13:04:43;;;;;;;17.65;4.20;;;19.80;99.90;;;;;;5077911;28;20294;-86
2023/10/21 13:07:13;;;;;;;16.83;4.00;;;19.80;99.90;;;;;;5093232;28;20315;-87
2023/10/21 13:09:46;;;;;;;21.35;4.53;;;19.70;99.90;;;;;;5082078;28;20192;-85
2023/10/21 13:12:17;;;;;;;17.27;4.13;;;19.80;99.90;;;;;;5082230;28;20659;-83
2023/10/21 13:14:48;;;;;;;16.48;4.18;;;19.80;99.90;;;;;;5081408;28;20551;-81
2023/10/21 13:17:19;;;;;;;18.15;3.83;;;19.80;99.90;;;;;;5106628;28;20431;-85
2023/10/21 13:19:50;;;;;;;18.45;4.35;;;19.80;99.90;;;;;;5090493;28;20279;-86
2023/10/21 13:22:21;;;;;;;15.57;4.18;;;19.80;99.90;;;;;;5085133;28;20275;-86
2023/10/21 13:24:57;;;;;;;15.70;3.67;;;19.80;99.90;;;;;;5084921;28;20207;-86
2023/10/21 13:27:29;;;;;;;14.63;3.97;;;19.80;99.90;;;;;;5083338;28;20731;-76
2023/10/21 13:30:01;;;;;;;21.23;4.32;;;19.80;99.90;;;;;;5084453;28;20243;-82
2023/10/21 13:32:34;;;;;;;18.50;4.05;;;19.80;99.90;;;;;;5087777;28;20188;-76